sensor_id;sensor_type;location;lat;lon;timestamp;P1;durP1;ratioP1;P2;durP2;ratioP2
13067;SDS011;6600;51.362;6.686;2022-08-21T00:01:11;1.60;;;1.30;;
13067;SDS011;6600;51.362;6.686;2022-08-21T00:03:40;1.37;;;1.17;;
13067;SDS011;6600;51.362;6.686;2022-08-21T00:06:06;1.57;;;1.47;;
13067;SDS011;6600;51.362;6.686;2022-08-21T00:08:32;1.67;;;1.27;;
13067;SDS011;6600;51.362;6.686;2022-08-21T00:10:57;1.40;;;1.30;;
13067;SDS011;6600;51.362;6.686;2022-08-21T00:13:23;1.10;;;1.10;;
13067;SDS011;6600;51.362;6.686;2022-08-21T00:15:49;2.00;;;1.53;;
13067;SDS011;6600;51.362;6.686;2022-08-21T00:18:14;2.10;;;1.80;;
13067;SDS011;6600;51.362;6.686;2022-08-21T00:20:41;1.93;;;1.23;;
13067;SDS011;6600;51.362;6.686;2022-08-21T00:23:08;1.40;;;1.30;;
13067;SDS011;6600;51.362;6.686;2022-08-21T00:25:34;1.47;;;1.37;;
13067;SDS011;6600;51.362;6.686;2022-08-21T00:27:59;1.33;;;1.23;;
13067;SDS011;6600;51.362;6.686;2022-08-21T00:30:26;2.73;;;1.43;;
13067;SDS011;6600;51.362;6.686;2022-08-21T00:32:53;2.47;;;1.50;;
13067;SDS011;6600;51.362;6.686;2022-08-21T00:35:21;1.63;;;1.43;;
13067;SDS011;6600;51.362;6.686;2022-08-21T00:37:50;2.93;;;1.80;;
13067;SDS011;6600;51.362;6.686;2022-08-21T00:40:16;3.23;;;1.83;;
13067;SDS011;6600;51.362;6.686;2022-08-21T00:42:44;1.50;;;1.40;;
13067;SDS011;6600;51.362;6.686;2022-08-21T00:45:11;2.77;;;1.87;;
13067;SDS011;6600;51.362;6.686;2022-08-21T00:47:36;1.73;;;1.63;;
13067;SDS011;6600;51.362;6.686;2022-08-21T00:50:03;2.10;;;1.60;;
13067;SDS011;6600;51.362;6.686;2022-08-21T00:52:30;2.13;;;1.47;;
13067;SDS011;6600;51.362;6.686;2022-08-21T00:54:58;1.53;;;1.20;;
13067;SDS011;6600;51.362;6.686;2022-08-21T00:57:29;1.80;;;1.70;;
13067;SDS011;6600;51.362;6.686;2022-08-21T00:59:58;2.67;;;2.00;;
13067;SDS011;6600;51.362;6.686;2022-08-21T01:02:26;1.57;;;1.47;;
13067;SDS011;6600;51.362;6.686;2022-08-21T01:04:52;2.93;;;1.93;;
13067;SDS011;6600;51.362;6.686;2022-08-21T01:07:17;3.03;;;2.03;;
13067;SDS011;6600;51.362;6.686;2022-08-21T01:09:44;2.20;;;2.00;;
13067;SDS011;6600;51.362;6.686;2022-08-21T01:12:11;1.97;;;1.80;;
13067;SDS011;6600;51.362;6.686;2022-08-21T01:14:37;1.87;;;1.70;;
13067;SDS011;6600;51.362;6.686;2022-08-21T01:17:05;4.43;;;1.90;;
13067;SDS011;6600;51.362;6.686;2022-08-21T01:19:31;2.37;;;2.17;;
13067;SDS011;6600;51.362;6.686;2022-08-21T01:21:56;4.37;;;1.97;;
13067;SDS011;6600;51.362;6.686;2022-08-21T01:24:22;2.37;;;2.17;;
13067;SDS011;6600;51.362;6.686;2022-08-21T01:26:48;2.40;;;2.20;;
13067;SDS011;6600;51.362;6.686;2022-08-21T01:32:02;2.10;;;1.90;;
13067;SDS011;6600;51.362;6.686;2022-08-21T01:34:30;4.03;;;2.13;;
13067;SDS011;6600;51.362;6.686;2022-08-21T01:36:57;2.77;;;2.07;;
13067;SDS011;6600;51.362;6.686;2022-08-21T01:39:22;4.77;;;2.43;;
13067;SDS011;6600;51.362;6.686;2022-08-21T01:41:48;3.57;;;2.80;;
13067;SDS011;6600;51.362;6.686;2022-08-21T01:44:13;2.47;;;2.13;;
13067;SDS011;6600;51.362;6.686;2022-08-21T01:46:39;4.90;;;2.70;;
13067;SDS011;6600;51.362;6.686;2022-08-21T01:49:04;3.43;;;2.63;;
13067;SDS011;6600;51.362;6.686;2022-08-21T01:51:30;2.60;;;2.40;;
13067;SDS011;6600;51.362;6.686;2022-08-21T01:53:55;2.20;;;2.00;;
13067;SDS011;6600;51.362;6.686;2022-08-21T01:56:21;2.90;;;2.40;;
13067;SDS011;6600;51.362;6.686;2022-08-21T01:58:47;3.17;;;2.73;;
13067;SDS011;6600;51.362;6.686;2022-08-21T02:01:12;4.13;;;2.20;;
13067;SDS011;6600;51.362;6.686;2022-08-21T02:03:38;4.03;;;2.23;;
13067;SDS011;6600;51.362;6.686;2022-08-21T02:06:06;2.60;;;2.30;;
13067;SDS011;6600;51.362;6.686;2022-08-21T02:08:32;2.40;;;2.20;;
13067;SDS011;6600;51.362;6.686;2022-08-21T02:10:57;2.37;;;2.07;;
13067;SDS011;6600;51.362;6.686;2022-08-21T02:13:23;2.47;;;1.97;;
13067;SDS011;6600;51.362;6.686;2022-08-21T02:15:49;2.27;;;2.03;;
13067;SDS011;6600;51.362;6.686;2022-08-21T02:18:15;2.43;;;2.23;;
13067;SDS011;6600;51.362;6.686;2022-08-21T02:20:41;2.10;;;2.00;;
13067;SDS011;6600;51.362;6.686;2022-08-21T02:23:10;2.60;;;2.37;;
13067;SDS011;6600;51.362;6.686;2022-08-21T02:25:36;4.80;;;2.73;;
13067;SDS011;6600;51.362;6.686;2022-08-21T02:28:03;2.67;;;2.47;;
13067;SDS011;6600;51.362;6.686;2022-08-21T02:30:33;3.50;;;2.67;;
13067;SDS011;6600;51.362;6.686;2022-08-21T02:33:02;5.13;;;2.83;;
13067;SDS011;6600;51.362;6.686;2022-08-21T02:35:27;5.23;;;3.03;;
13067;SDS011;6600;51.362;6.686;2022-08-21T02:37:54;2.83;;;2.10;;
13067;SDS011;6600;51.362;6.686;2022-08-21T02:40:27;3.23;;;2.93;;
13067;SDS011;6600;51.362;6.686;2022-08-21T02:42:55;3.57;;;2.60;;
13067;SDS011;6600;51.362;6.686;2022-08-21T02:45:22;3.77;;;2.80;;
13067;SDS011;6600;51.362;6.686;2022-08-21T02:47:51;3.60;;;2.53;;
13067;SDS011;6600;51.362;6.686;2022-08-21T02:50:29;2.67;;;2.37;;
13067;SDS011;6600;51.362;6.686;2022-08-21T02:52:59;3.23;;;2.10;;
13067;SDS011;6600;51.362;6.686;2022-08-21T02:55:27;2.83;;;2.40;;
13067;SDS011;6600;51.362;6.686;2022-08-21T02:57:55;2.10;;;2.00;;
13067;SDS011;6600;51.362;6.686;2022-08-21T03:00:22;3.43;;;2.33;;
13067;SDS011;6600;51.362;6.686;2022-08-21T03:02:49;2.70;;;2.50;;
13067;SDS011;6600;51.362;6.686;2022-08-21T03:05:14;2.93;;;2.00;;
13067;SDS011;6600;51.362;6.686;2022-08-21T03:07:42;2.87;;;2.30;;
13067;SDS011;6600;51.362;6.686;2022-08-21T03:10:09;3.27;;;2.43;;
13067;SDS011;6600;51.362;6.686;2022-08-21T03:12:34;2.10;;;2.00;;
13067;SDS011;6600;51.362;6.686;2022-08-21T03:15:01;3.37;;;2.40;;
13067;SDS011;6600;51.362;6.686;2022-08-21T03:17:28;4.30;;;2.50;;
13067;SDS011;6600;51.362;6.686;2022-08-21T03:19:53;2.30;;;2.10;;
13067;SDS011;6600;51.362;6.686;2022-08-21T03:22:18;3.90;;;2.40;;
13067;SDS011;6600;51.362;6.686;2022-08-21T03:24:44;3.40;;;2.53;;
13067;SDS011;6600;51.362;6.686;2022-08-21T03:27:10;4.87;;;2.80;;
13067;SDS011;6600;51.362;6.686;2022-08-21T03:29:37;4.40;;;3.10;;
13067;SDS011;6600;51.362;6.686;2022-08-21T03:32:03;3.57;;;2.70;;
13067;SDS011;6600;51.362;6.686;2022-08-21T03:34:28;2.50;;;2.30;;
13067;SDS011;6600;51.362;6.686;2022-08-21T03:36:54;2.70;;;2.50;;
13067;SDS011;6600;51.362;6.686;2022-08-21T03:39:19;3.30;;;3.00;;
13067;SDS011;6600;51.362;6.686;2022-08-21T03:41:44;3.37;;;2.90;;
13067;SDS011;6600;51.362;6.686;2022-08-21T03:44:10;4.20;;;3.53;;
13067;SDS011;6600;51.362;6.686;2022-08-21T03:46:36;4.80;;;3.70;;
13067;SDS011;6600;51.362;6.686;2022-08-21T03:49:02;4.87;;;3.17;;
13067;SDS011;6600;51.362;6.686;2022-08-21T03:51:27;3.50;;;3.07;;
13067;SDS011;6600;51.362;6.686;2022-08-21T03:53:53;3.30;;;3.00;;
13067;SDS011;6600;51.362;6.686;2022-08-21T03:56:19;4.67;;;3.00;;
13067;SDS011;6600;51.362;6.686;2022-08-21T03:58:44;4.80;;;3.43;;
13067;SDS011;6600;51.362;6.686;2022-08-21T04:01:10;5.07;;;3.10;;
13067;SDS011;6600;51.362;6.686;2022-08-21T04:03:37;3.03;;;2.70;;
13067;SDS011;6600;51.362;6.686;2022-08-21T04:06:02;6.53;;;4.00;;
13067;SDS011;6600;51.362;6.686;2022-08-21T04:08:28;4.10;;;3.13;;
13067;SDS011;6600;51.362;6.686;2022-08-21T04:10:55;5.33;;;3.83;;
13067;SDS011;6600;51.362;6.686;2022-08-21T04:13:23;4.90;;;3.13;;
13067;SDS011;6600;51.362;6.686;2022-08-21T04:15:49;3.63;;;3.20;;
13067;SDS011;6600;51.362;6.686;2022-08-21T04:18:14;4.10;;;3.70;;
13067;SDS011;6600;51.362;6.686;2022-08-21T04:20:40;3.63;;;3.20;;
13067;SDS011;6600;51.362;6.686;2022-08-21T04:23:08;4.23;;;3.83;;
13067;SDS011;6600;51.362;6.686;2022-08-21T04:25:33;4.93;;;3.57;;
13067;SDS011;6600;51.362;6.686;2022-08-21T04:27:59;3.70;;;3.30;;
13067;SDS011;6600;51.362;6.686;2022-08-21T04:30:24;4.43;;;3.73;;
13067;SDS011;6600;51.362;6.686;2022-08-21T04:32:50;4.77;;;3.40;;
13067;SDS011;6600;51.362;6.686;2022-08-21T04:35:17;5.03;;;3.80;;
13067;SDS011;6600;51.362;6.686;2022-08-21T04:37:44;4.30;;;2.90;;
13067;SDS011;6600;51.362;6.686;2022-08-21T04:40:10;4.67;;;3.87;;
13067;SDS011;6600;51.362;6.686;2022-08-21T04:45:21;3.57;;;3.10;;
13067;SDS011;6600;51.362;6.686;2022-08-21T04:47:50;5.63;;;3.60;;
13067;SDS011;6600;51.362;6.686;2022-08-21T04:50:16;5.37;;;3.47;;
13067;SDS011;6600;51.362;6.686;2022-08-21T04:52:42;6.50;;;3.90;;
13067;SDS011;6600;51.362;6.686;2022-08-21T04:55:08;4.53;;;3.73;;
13067;SDS011;6600;51.362;6.686;2022-08-21T04:57:34;6.03;;;3.80;;
13067;SDS011;6600;51.362;6.686;2022-08-21T05:00:00;4.47;;;3.37;;
13067;SDS011;6600;51.362;6.686;2022-08-21T05:02:27;3.87;;;3.13;;
13067;SDS011;6600;51.362;6.686;2022-08-21T05:04:53;4.57;;;3.60;;
13067;SDS011;6600;51.362;6.686;2022-08-21T05:07:21;5.03;;;3.53;;
13067;SDS011;6600;51.362;6.686;2022-08-21T05:09:49;4.27;;;3.40;;
13067;SDS011;6600;51.362;6.686;2022-08-21T05:12:15;4.20;;;3.80;;
13067;SDS011;6600;51.362;6.686;2022-08-21T05:14:41;4.70;;;3.57;;
13067;SDS011;6600;51.362;6.686;2022-08-21T05:17:07;5.77;;;3.47;;
13067;SDS011;6600;51.362;6.686;2022-08-21T05:19:33;5.20;;;3.37;;
13067;SDS011;6600;51.362;6.686;2022-08-21T05:21:59;5.60;;;3.77;;
13067;SDS011;6600;51.362;6.686;2022-08-21T05:24:25;5.10;;;3.80;;
13067;SDS011;6600;51.362;6.686;2022-08-21T05:26:51;4.27;;;3.87;;
13067;SDS011;6600;51.362;6.686;2022-08-21T05:29:17;6.27;;;3.70;;
13067;SDS011;6600;51.362;6.686;2022-08-21T05:31:43;4.97;;;3.50;;
13067;SDS011;6600;51.362;6.686;2022-08-21T05:34:08;5.67;;;3.90;;
13067;SDS011;6600;51.362;6.686;2022-08-21T05:36:34;5.60;;;4.10;;
13067;SDS011;6600;51.362;6.686;2022-08-21T05:38:59;6.90;;;4.10;;
13067;SDS011;6600;51.362;6.686;2022-08-21T05:41:25;4.27;;;3.87;;
13067;SDS011;6600;51.362;6.686;2022-08-21T05:43:50;6.97;;;4.30;;
13067;SDS011;6600;51.362;6.686;2022-08-21T05:46:16;4.87;;;4.37;;
13067;SDS011;6600;51.362;6.686;2022-08-21T05:48:41;6.57;;;3.67;;
13067;SDS011;6600;51.362;6.686;2022-08-21T05:51:08;4.30;;;3.77;;
13067;SDS011;6600;51.362;6.686;2022-08-21T05:53:35;4.87;;;3.70;;
13067;SDS011;6600;51.362;6.686;2022-08-21T05:56:02;4.17;;;3.27;;
13067;SDS011;6600;51.362;6.686;2022-08-21T05:58:28;3.70;;;3.27;;
13067;SDS011;6600;51.362;6.686;2022-08-21T06:00:55;3.73;;;3.20;;
13067;SDS011;6600;51.362;6.686;2022-08-21T06:03:24;3.17;;;2.97;;
13067;SDS011;6600;51.362;6.686;2022-08-21T06:05:54;4.00;;;3.17;;
13067;SDS011;6600;51.362;6.686;2022-08-21T06:08:20;5.30;;;2.60;;
13067;SDS011;6600;51.362;6.686;2022-08-21T06:10:47;3.70;;;2.40;;
13067;SDS011;6600;51.362;6.686;2022-08-21T06:13:14;3.60;;;2.63;;
13067;SDS011;6600;51.362;6.686;2022-08-21T06:15:41;4.00;;;2.50;;
13067;SDS011;6600;51.362;6.686;2022-08-21T06:18:07;2.60;;;2.40;;
13067;SDS011;6600;51.362;6.686;2022-08-21T06:20:33;3.90;;;2.63;;
13067;SDS011;6600;51.362;6.686;2022-08-21T06:22:59;6.13;;;2.93;;
13067;SDS011;6600;51.362;6.686;2022-08-21T06:25:25;4.63;;;2.77;;
13067;SDS011;6600;51.362;6.686;2022-08-21T06:27:50;3.63;;;2.50;;
13067;SDS011;6600;51.362;6.686;2022-08-21T06:30:16;3.73;;;2.80;;
13067;SDS011;6600;51.362;6.686;2022-08-21T06:32:42;2.87;;;2.67;;
13067;SDS011;6600;51.362;6.686;2022-08-21T06:35:08;3.73;;;2.73;;
13067;SDS011;6600;51.362;6.686;2022-08-21T06:37:33;3.30;;;2.40;;
13067;SDS011;6600;51.362;6.686;2022-08-21T06:39:59;2.90;;;2.47;;
13067;SDS011;6600;51.362;6.686;2022-08-21T06:42:24;2.97;;;2.43;;
13067;SDS011;6600;51.362;6.686;2022-08-21T06:44:50;2.20;;;2.10;;
13067;SDS011;6600;51.362;6.686;2022-08-21T06:47:15;2.57;;;2.00;;
13067;SDS011;6600;51.362;6.686;2022-08-21T06:49:41;2.60;;;2.40;;
13067;SDS011;6600;51.362;6.686;2022-08-21T06:52:10;3.57;;;2.23;;
13067;SDS011;6600;51.362;6.686;2022-08-21T06:54:36;3.47;;;2.23;;
13067;SDS011;6600;51.362;6.686;2022-08-21T06:57:02;1.80;;;1.70;;
13067;SDS011;6600;51.362;6.686;2022-08-21T06:59:28;2.97;;;2.20;;
13067;SDS011;6600;51.362;6.686;2022-08-21T07:01:53;1.83;;;1.73;;
13067;SDS011;6600;51.362;6.686;2022-08-21T07:04:18;2.40;;;1.80;;
13067;SDS011;6600;51.362;6.686;2022-08-21T07:06:44;2.80;;;1.97;;
13067;SDS011;6600;51.362;6.686;2022-08-21T07:09:10;2.03;;;1.80;;
13067;SDS011;6600;51.362;6.686;2022-08-21T07:11:35;4.47;;;1.87;;
13067;SDS011;6600;51.362;6.686;2022-08-21T07:14:02;4.03;;;1.83;;
13067;SDS011;6600;51.362;6.686;2022-08-21T07:16:27;1.57;;;1.47;;
13067;SDS011;6600;51.362;6.686;2022-08-21T07:18:53;3.73;;;1.30;;
13067;SDS011;6600;51.362;6.686;2022-08-21T07:21:18;1.93;;;1.40;;
13067;SDS011;6600;51.362;6.686;2022-08-21T07:23:46;1.60;;;1.50;;
13067;SDS011;6600;51.362;6.686;2022-08-21T07:26:15;2.00;;;1.43;;
13067;SDS011;6600;51.362;6.686;2022-08-21T07:28:42;3.60;;;1.30;;
13067;SDS011;6600;51.362;6.686;2022-08-21T07:31:08;2.53;;;1.10;;
13067;SDS011;6600;51.362;6.686;2022-08-21T07:33:35;2.17;;;0.93;;
13067;SDS011;6600;51.362;6.686;2022-08-21T07:36:01;1.57;;;0.83;;
13067;SDS011;6600;51.362;6.686;2022-08-21T07:38:27;1.63;;;0.90;;
13067;SDS011;6600;51.362;6.686;2022-08-21T07:40:53;1.77;;;0.70;;
13067;SDS011;6600;51.362;6.686;2022-08-21T07:43:21;1.63;;;0.63;;
13067;SDS011;6600;51.362;6.686;2022-08-21T07:45:46;0.63;;;0.60;;
13067;SDS011;6600;51.362;6.686;2022-08-21T07:48:14;1.80;;;0.60;;
13067;SDS011;6600;51.362;6.686;2022-08-21T07:50:40;0.90;;;0.83;;
13067;SDS011;6600;51.362;6.686;2022-08-21T07:53:06;0.60;;;0.60;;
13067;SDS011;6600;51.362;6.686;2022-08-21T07:55:32;1.57;;;0.77;;
13067;SDS011;6600;51.362;6.686;2022-08-21T07:57:58;1.57;;;1.10;;
13067;SDS011;6600;51.362;6.686;2022-08-21T08:00:24;1.23;;;0.70;;
13067;SDS011;6600;51.362;6.686;2022-08-21T08:02:51;1.23;;;0.60;;
13067;SDS011;6600;51.362;6.686;2022-08-21T08:05:19;1.13;;;0.77;;
13067;SDS011;6600;51.362;6.686;2022-08-21T08:07:46;1.13;;;0.60;;
13067;SDS011;6600;51.362;6.686;2022-08-21T08:10:12;1.43;;;1.00;;
13067;SDS011;6600;51.362;6.686;2022-08-21T08:12:40;1.27;;;0.90;;
13067;SDS011;6600;51.362;6.686;2022-08-21T08:15:07;1.13;;;0.90;;
13067;SDS011;6600;51.362;6.686;2022-08-21T08:17:35;0.40;;;0.40;;
13067;SDS011;6600;51.362;6.686;2022-08-21T08:20:01;0.93;;;0.50;;
13067;SDS011;6600;51.362;6.686;2022-08-21T08:22:27;1.00;;;0.67;;
13067;SDS011;6600;51.362;6.686;2022-08-21T08:24:52;1.30;;;0.50;;
13067;SDS011;6600;51.362;6.686;2022-08-21T08:27:18;1.23;;;0.53;;
13067;SDS011;6600;51.362;6.686;2022-08-21T08:29:44;0.73;;;0.73;;
13067;SDS011;6600;51.362;6.686;2022-08-21T08:32:11;0.40;;;0.40;;
13067;SDS011;6600;51.362;6.686;2022-08-21T08:34:36;0.90;;;0.70;;
13067;SDS011;6600;51.362;6.686;2022-08-21T08:37:04;1.33;;;0.93;;
13067;SDS011;6600;51.362;6.686;2022-08-21T08:39:31;0.50;;;0.50;;
13067;SDS011;6600;51.362;6.686;2022-08-21T08:42:03;0.70;;;0.60;;
13067;SDS011;6600;51.362;6.686;2022-08-21T08:44:38;0.93;;;0.53;;
13067;SDS011;6600;51.362;6.686;2022-08-21T08:47:08;1.03;;;0.90;;
13067;SDS011;6600;51.362;6.686;2022-08-21T08:52:29;0.60;;;0.60;;
13067;SDS011;6600;51.362;6.686;2022-08-21T08:57:29;0.70;;;0.63;;
13067;SDS011;6600;51.362;6.686;2022-08-21T08:59:57;2.00;;;0.67;;
13067;SDS011;6600;51.362;6.686;2022-08-21T09:02:24;0.40;;;0.40;;
13067;SDS011;6600;51.362;6.686;2022-08-21T09:04:52;4.27;;;0.90;;
13067;SDS011;6600;51.362;6.686;2022-08-21T09:07:21;1.23;;;0.80;;
13067;SDS011;6600;51.362;6.686;2022-08-21T09:15:27;3.13;;;0.73;;
13067;SDS011;6600;51.362;6.686;2022-08-21T09:23:00;0.93;;;0.80;;
13067;SDS011;6600;51.362;6.686;2022-08-21T09:25:32;1.13;;;0.67;;
13067;SDS011;6600;51.362;6.686;2022-08-21T09:28:11;0.60;;;0.60;;
13067;SDS011;6600;51.362;6.686;2022-08-21T09:30:39;0.40;;;0.40;;
13067;SDS011;6600;51.362;6.686;2022-08-21T09:33:06;1.10;;;0.60;;
13067;SDS011;6600;51.362;6.686;2022-08-21T09:35:31;0.87;;;0.40;;
13067;SDS011;6600;51.362;6.686;2022-08-21T09:37:58;0.60;;;0.60;;
13067;SDS011;6600;51.362;6.686;2022-08-21T09:40:33;0.50;;;0.50;;
13067;SDS011;6600;51.362;6.686;2022-08-21T09:43:20;0.57;;;0.57;;
13067;SDS011;6600;51.362;6.686;2022-08-21T09:45:48;0.73;;;0.40;;
13067;SDS011;6600;51.362;6.686;2022-08-21T09:48:25;2.37;;;0.50;;
13067;SDS011;6600;51.362;6.686;2022-08-21T09:50:52;1.17;;;0.50;;
13067;SDS011;6600;51.362;6.686;2022-08-21T09:53:28;0.70;;;0.70;;
13067;SDS011;6600;51.362;6.686;2022-08-21T09:55:59;0.70;;;0.70;;
13067;SDS011;6600;51.362;6.686;2022-08-21T09:58:47;1.07;;;1.07;;
13067;SDS011;6600;51.362;6.686;2022-08-21T10:01:15;0.50;;;0.50;;
13067;SDS011;6600;51.362;6.686;2022-08-21T10:03:41;0.60;;;0.60;;
13067;SDS011;6600;51.362;6.686;2022-08-21T10:06:08;0.73;;;0.60;;
13067;SDS011;6600;51.362;6.686;2022-08-21T10:08:39;0.87;;;0.87;;
13067;SDS011;6600;51.362;6.686;2022-08-21T10:11:09;1.77;;;0.90;;
13067;SDS011;6600;51.362;6.686;2022-08-21T10:19:07;1.33;;;0.80;;
13067;SDS011;6600;51.362;6.686;2022-08-21T10:21:59;1.37;;;0.70;;
13067;SDS011;6600;51.362;6.686;2022-08-21T10:24:33;1.27;;;0.50;;
13067;SDS011;6600;51.362;6.686;2022-08-21T10:30:17;1.30;;;0.60;;
13067;SDS011;6600;51.362;6.686;2022-08-21T10:35:40;1.20;;;0.60;;
13067;SDS011;6600;51.362;6.686;2022-08-21T10:38:27;2.13;;;0.73;;
13067;SDS011;6600;51.362;6.686;2022-08-21T10:41:07;0.60;;;0.60;;
13067;SDS011;6600;51.362;6.686;2022-08-21T10:46:17;2.23;;;0.53;;
13067;SDS011;6600;51.362;6.686;2022-08-21T10:48:56;0.93;;;0.67;;
13067;SDS011;6600;51.362;6.686;2022-08-21T10:54:19;1.90;;;0.60;;
13067;SDS011;6600;51.362;6.686;2022-08-21T10:57:14;0.83;;;0.70;;
13067;SDS011;6600;51.362;6.686;2022-08-21T10:59:55;0.70;;;0.60;;
13067;SDS011;6600;51.362;6.686;2022-08-21T11:02:27;0.67;;;0.53;;
13067;SDS011;6600;51.362;6.686;2022-08-21T11:05:11;0.90;;;0.40;;
13067;SDS011;6600;51.362;6.686;2022-08-21T11:10:16;1.60;;;0.73;;
13067;SDS011;6600;51.362;6.686;2022-08-21T11:12:49;1.00;;;0.37;;
13067;SDS011;6600;51.362;6.686;2022-08-21T11:17:54;1.53;;;0.47;;
13067;SDS011;6600;51.362;6.686;2022-08-21T11:20:50;1.37;;;0.50;;
13067;SDS011;6600;51.362;6.686;2022-08-21T11:26:37;0.57;;;0.57;;
13067;SDS011;6600;51.362;6.686;2022-08-21T11:55:05;0.50;;;0.50;;
13067;SDS011;6600;51.362;6.686;2022-08-21T11:57:49;1.17;;;0.60;;
13067;SDS011;6600;51.362;6.686;2022-08-21T12:03:14;0.40;;;0.40;;
13067;SDS011;6600;51.362;6.686;2022-08-21T12:05:57;1.30;;;0.50;;
13067;SDS011;6600;51.362;6.686;2022-08-21T12:08:39;0.40;;;0.40;;
13067;SDS011;6600;51.362;6.686;2022-08-21T12:13:53;0.57;;;0.57;;
13067;SDS011;6600;51.362;6.686;2022-08-21T12:16:38;0.50;;;0.50;;
13067;SDS011;6600;51.362;6.686;2022-08-21T12:19:09;0.43;;;0.43;;
13067;SDS011;6600;51.362;6.686;2022-08-21T12:26:55;0.30;;;0.30;;
13067;SDS011;6600;51.362;6.686;2022-08-21T12:32:03;0.97;;;0.60;;
13067;SDS011;6600;51.362;6.686;2022-08-21T12:34:51;0.70;;;0.70;;
13067;SDS011;6600;51.362;6.686;2022-08-21T12:37:39;0.57;;;0.37;;
13067;SDS011;6600;51.362;6.686;2022-08-21T12:40:28;0.40;;;0.40;;
13067;SDS011;6600;51.362;6.686;2022-08-21T12:43:02;0.50;;;0.50;;
13067;SDS011;6600;51.362;6.686;2022-08-21T12:45:30;0.40;;;0.40;;
13067;SDS011;6600;51.362;6.686;2022-08-21T12:50:37;0.37;;;0.37;;
13067;SDS011;6600;51.362;6.686;2022-08-21T12:56:13;0.40;;;0.40;;
13067;SDS011;6600;51.362;6.686;2022-08-21T12:58:44;0.47;;;0.47;;
13067;SDS011;6600;51.362;6.686;2022-08-21T13:01:22;1.07;;;0.50;;
13067;SDS011;6600;51.362;6.686;2022-08-21T13:03:51;1.37;;;0.67;;
13067;SDS011;6600;51.362;6.686;2022-08-21T13:06:19;0.80;;;0.70;;
13067;SDS011;6600;51.362;6.686;2022-08-21T13:08:46;0.70;;;0.50;;
13067;SDS011;6600;51.362;6.686;2022-08-21T13:11:18;2.00;;;0.57;;
13067;SDS011;6600;51.362;6.686;2022-08-21T13:13:50;1.13;;;0.30;;
13067;SDS011;6600;51.362;6.686;2022-08-21T13:16:26;0.50;;;0.50;;
13067;SDS011;6600;51.362;6.686;2022-08-21T13:21:48;0.83;;;0.57;;
13067;SDS011;6600;51.362;6.686;2022-08-21T13:24:28;0.87;;;0.50;;
13067;SDS011;6600;51.362;6.686;2022-08-21T13:26:57;0.30;;;0.30;;
13067;SDS011;6600;51.362;6.686;2022-08-21T13:29:27;0.63;;;0.50;;
13067;SDS011;6600;51.362;6.686;2022-08-21T13:31:56;0.57;;;0.47;;
13067;SDS011;6600;51.362;6.686;2022-08-21T13:34:28;0.87;;;0.43;;
13067;SDS011;6600;51.362;6.686;2022-08-21T13:37:00;0.50;;;0.47;;
13067;SDS011;6600;51.362;6.686;2022-08-21T13:39:31;0.50;;;0.50;;
13067;SDS011;6600;51.362;6.686;2022-08-21T13:41:58;1.13;;;0.57;;
13067;SDS011;6600;51.362;6.686;2022-08-21T13:44:34;0.80;;;0.70;;
13067;SDS011;6600;51.362;6.686;2022-08-21T13:47:02;0.47;;;0.47;;
13067;SDS011;6600;51.362;6.686;2022-08-21T13:49:30;0.87;;;0.23;;
13067;SDS011;6600;51.362;6.686;2022-08-21T13:51:58;0.97;;;0.30;;
13067;SDS011;6600;51.362;6.686;2022-08-21T13:54:40;0.43;;;0.43;;
13067;SDS011;6600;51.362;6.686;2022-08-21T14:00:14;0.57;;;0.50;;
13067;SDS011;6600;51.362;6.686;2022-08-21T14:02:44;0.50;;;0.50;;
13067;SDS011;6600;51.362;6.686;2022-08-21T14:05:18;0.73;;;0.37;;
13067;SDS011;6600;51.362;6.686;2022-08-21T14:07:46;0.50;;;0.30;;
13067;SDS011;6600;51.362;6.686;2022-08-21T14:12:50;0.37;;;0.37;;
13067;SDS011;6600;51.362;6.686;2022-08-21T14:15:22;0.33;;;0.30;;
13067;SDS011;6600;51.362;6.686;2022-08-21T14:17:50;0.43;;;0.43;;
13067;SDS011;6600;51.362;6.686;2022-08-21T14:20:30;0.40;;;0.40;;
13067;SDS011;6600;51.362;6.686;2022-08-21T14:22:58;0.30;;;0.30;;
13067;SDS011;6600;51.362;6.686;2022-08-21T14:27:53;1.17;;;0.80;;
13067;SDS011;6600;51.362;6.686;2022-08-21T14:30:20;1.33;;;0.77;;
13067;SDS011;6600;51.362;6.686;2022-08-21T14:32:46;0.40;;;0.40;;
13067;SDS011;6600;51.362;6.686;2022-08-21T14:35:12;0.30;;;0.30;;
13067;SDS011;6600;51.362;6.686;2022-08-21T14:37:41;0.50;;;0.40;;
13067;SDS011;6600;51.362;6.686;2022-08-21T14:40:07;0.57;;;0.47;;
13067;SDS011;6600;51.362;6.686;2022-08-21T14:42:33;1.53;;;0.60;;
13067;SDS011;6600;51.362;6.686;2022-08-21T14:45:00;0.87;;;0.60;;
13067;SDS011;6600;51.362;6.686;2022-08-21T14:47:30;1.17;;;0.70;;
13067;SDS011;6600;51.362;6.686;2022-08-21T14:49:56;1.30;;;0.60;;
13067;SDS011;6600;51.362;6.686;2022-08-21T14:52:21;1.17;;;0.33;;
13067;SDS011;6600;51.362;6.686;2022-08-21T14:54:48;2.60;;;0.90;;
13067;SDS011;6600;51.362;6.686;2022-08-21T14:57:14;0.63;;;0.63;;
13067;SDS011;6600;51.362;6.686;2022-08-21T14:59:40;0.60;;;0.60;;
13067;SDS011;6600;51.362;6.686;2022-08-21T15:02:06;0.50;;;0.50;;
13067;SDS011;6600;51.362;6.686;2022-08-21T15:04:33;0.60;;;0.60;;
13067;SDS011;6600;51.362;6.686;2022-08-21T15:06:59;1.17;;;0.47;;
13067;SDS011;6600;51.362;6.686;2022-08-21T15:09:25;0.83;;;0.63;;
13067;SDS011;6600;51.362;6.686;2022-08-21T15:11:52;0.60;;;0.60;;
13067;SDS011;6600;51.362;6.686;2022-08-21T15:14:22;2.20;;;0.77;;
13067;SDS011;6600;51.362;6.686;2022-08-21T15:16:51;0.50;;;0.50;;
13067;SDS011;6600;51.362;6.686;2022-08-21T15:19:16;0.50;;;0.50;;
13067;SDS011;6600;51.362;6.686;2022-08-21T15:21:42;1.40;;;0.63;;
13067;SDS011;6600;51.362;6.686;2022-08-21T15:24:07;0.43;;;0.40;;
13067;SDS011;6600;51.362;6.686;2022-08-21T15:26:33;0.93;;;0.60;;
13067;SDS011;6600;51.362;6.686;2022-08-21T15:28:59;0.30;;;0.30;;
13067;SDS011;6600;51.362;6.686;2022-08-21T15:31:25;0.50;;;0.50;;
13067;SDS011;6600;51.362;6.686;2022-08-21T15:33:50;0.97;;;0.60;;
13067;SDS011;6600;51.362;6.686;2022-08-21T15:36:16;1.07;;;0.73;;
13067;SDS011;6600;51.362;6.686;2022-08-21T15:38:42;1.03;;;0.93;;
13067;SDS011;6600;51.362;6.686;2022-08-21T15:41:08;1.33;;;0.80;;
13067;SDS011;6600;51.362;6.686;2022-08-21T15:43:40;0.50;;;0.50;;
13067;SDS011;6600;51.362;6.686;2022-08-21T15:46:10;0.83;;;0.70;;
13067;SDS011;6600;51.362;6.686;2022-08-21T15:48:38;0.60;;;0.40;;
13067;SDS011;6600;51.362;6.686;2022-08-21T15:51:03;1.30;;;0.70;;
13067;SDS011;6600;51.362;6.686;2022-08-21T15:53:29;1.30;;;0.60;;
13067;SDS011;6600;51.362;6.686;2022-08-21T15:55:56;0.37;;;0.37;;
13067;SDS011;6600;51.362;6.686;2022-08-21T15:58:22;0.50;;;0.50;;
13067;SDS011;6600;51.362;6.686;2022-08-21T16:00:48;0.37;;;0.37;;
13067;SDS011;6600;51.362;6.686;2022-08-21T16:03:15;0.90;;;0.70;;
13067;SDS011;6600;51.362;6.686;2022-08-21T16:05:45;0.50;;;0.50;;
13067;SDS011;6600;51.362;6.686;2022-08-21T16:08:13;0.80;;;0.50;;
13067;SDS011;6600;51.362;6.686;2022-08-21T16:10:39;1.07;;;0.50;;
13067;SDS011;6600;51.362;6.686;2022-08-21T16:13:06;0.50;;;0.50;;
13067;SDS011;6600;51.362;6.686;2022-08-21T16:15:39;1.43;;;0.80;;
13067;SDS011;6600;51.362;6.686;2022-08-21T16:18:05;4.70;;;1.00;;
13067;SDS011;6600;51.362;6.686;2022-08-21T16:20:30;1.97;;;0.90;;
13067;SDS011;6600;51.362;6.686;2022-08-21T16:22:56;1.13;;;0.60;;
13067;SDS011;6600;51.362;6.686;2022-08-21T16:25:23;0.53;;;0.53;;
13067;SDS011;6600;51.362;6.686;2022-08-21T16:27:51;3.33;;;0.80;;
13067;SDS011;6600;51.362;6.686;2022-08-21T16:30:20;0.70;;;0.53;;
13067;SDS011;6600;51.362;6.686;2022-08-21T16:32:46;0.50;;;0.50;;
13067;SDS011;6600;51.362;6.686;2022-08-21T16:35:14;1.57;;;0.70;;
13067;SDS011;6600;51.362;6.686;2022-08-21T16:37:41;0.70;;;0.60;;
13067;SDS011;6600;51.362;6.686;2022-08-21T16:40:07;0.70;;;0.53;;
13067;SDS011;6600;51.362;6.686;2022-08-21T16:42:34;0.70;;;0.60;;
13067;SDS011;6600;51.362;6.686;2022-08-21T16:45:01;1.77;;;0.77;;
13067;SDS011;6600;51.362;6.686;2022-08-21T16:47:28;0.60;;;0.60;;
13067;SDS011;6600;51.362;6.686;2022-08-21T16:49:55;1.60;;;0.77;;